createdAt,value
2023-01-03T00:01:41.503Z,70964.38
2023-01-03T00:04:08.029Z,70964.38
2023-01-03T00:06:39.209Z,70964.38
2023-01-03T00:09:12.242Z,70964.38
2023-01-03T00:11:58.405Z,70964.38
2023-01-03T00:14:28.393Z,70964.38
2023-01-03T00:16:58.667Z,70964.38
2023-01-03T00:19:27.317Z,70964.38
2023-01-03T00:21:54.251Z,70964.38
2023-01-03T00:24:20.846Z,70964.38
2023-01-03T00:26:47.595Z,70964.38
2023-01-03T00:29:14.914Z,70964.38
2023-01-03T00:31:41.835Z,70964.38
2023-01-03T00:34:08.729Z,70964.38
2023-01-03T00:36:36.012Z,70964.38
2023-01-03T00:39:03.489Z,70964.38
2023-01-03T00:41:30.649Z,70964.38
2023-01-03T00:43:57.189Z,70964.38
2023-01-03T00:46:24.485Z,70964.38
2023-01-03T00:48:51.116Z,70964.38
2023-01-03T00:51:22.923Z,70964.38
2023-01-03T00:53:50.977Z,70964.38
2023-01-03T00:56:19.711Z,70964.38
2023-01-03T00:58:47.023Z,70964.38
2023-01-03T01:01:22.446Z,70964.38
2023-01-03T01:03:59.519Z,70964.38
2023-01-03T01:06:29.152Z,70964.38
2023-01-03T01:08:57.767Z,70964.38
2023-01-03T01:11:26.631Z,70964.38
2023-01-03T01:13:53.550Z,70964.38
2023-01-03T01:16:22.853Z,70964.38
2023-01-03T01:18:50.790Z,70964.38
2023-01-03T01:21:19.383Z,70964.38
2023-01-03T01:23:46.607Z,70964.38
2023-01-03T01:26:15.509Z,70964.38
2023-01-03T01:28:42.637Z,70964.38
2023-01-03T01:31:10.922Z,70964.38
2023-01-03T01:33:37.434Z,70964.38
2023-01-03T01:36:07.911Z,70964.38
2023-01-03T01:38:34.413Z,70964.38
2023-01-03T01:41:00.891Z,70964.38
2023-01-03T01:43:45.977Z,70964.38
2023-01-03T01:46:25.880Z,70964.38
2023-01-03T01:48:55.679Z,70964.38
2023-01-03T01:51:23.444Z,70964.38
2023-01-03T01:53:52.262Z,70964.38
2023-01-03T01:56:36.906Z,70964.38
2023-01-03T01:59:04.176Z,70964.38
2023-01-03T02:01:30.987Z,70964.38
2023-01-03T02:04:04.559Z,70964.38
2023-01-03T02:06:33.484Z,70964.38
2023-01-03T02:09:00.234Z,70964.38
2023-01-03T02:12:14.628Z,70964.38
2023-01-03T02:14:41.065Z,70964.38
2023-01-03T02:17:34.905Z,70964.38
2023-01-03T02:20:10.282Z,70964.38
2023-01-03T02:22:49.468Z,70964.38
2023-01-03T02:25:42.139Z,70964.38
2023-01-03T02:28:35.963Z,70964.38
2023-01-03T02:31:09.188Z,70964.38
2023-01-03T02:33:54.380Z,70964.38
2023-01-03T02:36:33.239Z,70964.38
2023-01-03T02:39:25.560Z,70964.38
2023-01-03T02:42:14.895Z,70964.38
2023-01-03T02:44:49.701Z,70964.38
2023-01-03T02:47:19.780Z,70964.38
2023-01-03T02:49:50.517Z,70964.38
2023-01-03T02:52:20.215Z,70964.38
2023-01-03T02:54:51.504Z,70964.38
2023-01-03T02:57:22.490Z,70964.38
2023-01-03T02:59:58.783Z,70964.38
2023-01-03T03:02:29.379Z,70964.38
2023-01-03T03:04:57.704Z,70964.38
2023-01-03T03:07:31.636Z,70964.38
2023-01-03T03:10:17.548Z,70964.38
2023-01-03T03:13:04.727Z,70964.38
2023-01-03T03:15:35.343Z,70964.38
2023-01-03T03:18:14.730Z,70964.38
2023-01-03T03:20:59.885Z,70964.38
2023-01-03T03:23:48.380Z,70964.38
2023-01-03T03:26:42.023Z,70964.38
2023-01-03T03:29:14.085Z,70964.38
2023-01-03T03:31:46.420Z,70964.38
2023-01-03T03:34:18.510Z,70964.38
2023-01-03T03:36:57.942Z,70964.38
2023-01-03T03:39:43.772Z,70964.38
2023-01-03T03:43:24.669Z,70964.38
2023-01-03T03:46:14.749Z,70964.38
2023-01-03T03:49:04.133Z,70964.38
2023-01-03T03:51:33.959Z,70964.38
2023-01-03T03:54:02.283Z,70964.38
2023-01-03T03:56:31.889Z,70964.38
2023-01-03T03:59:02.105Z,70964.38
2023-01-03T04:01:29.038Z,70964.38
2023-01-03T04:03:57.823Z,70964.38
2023-01-03T04:06:44.378Z,70964.38
2023-01-03T04:09:11.384Z,70964.38
2023-01-03T04:11:37.801Z,70964.38
2023-01-03T04:14:04.496Z,70964.38
2023-01-03T04:16:31.124Z,70964.38
2023-01-03T04:18:57.631Z,70964.38
2023-01-03T04:21:24.060Z,70964.38
2023-01-03T04:23:50.608Z,70964.38
2023-01-03T04:26:17.466Z,70964.38
2023-01-03T04:28:44.021Z,70964.38
2023-01-03T04:31:10.541Z,70964.38
2023-01-03T04:33:37.037Z,70964.38
2023-01-03T04:36:04.261Z,70964.38
2023-01-03T04:38:30.703Z,70964.38
2023-01-03T04:41:04.046Z,70964.38
2023-01-03T04:43:49.188Z,70964.38
2023-01-03T04:46:15.977Z,70964.38
2023-01-03T04:48:42.614Z,70964.38
2023-01-03T04:51:09.315Z,70964.38
2023-01-03T04:53:35.701Z,70964.38
2023-01-03T04:56:02.453Z,70964.38
2023-01-03T04:58:28.920Z,70964.38
2023-01-03T05:01:02.666Z,70964.38
2023-01-03T05:03:30.213Z,70964.38
2023-01-03T05:06:05.101Z,70964.38
2023-01-03T05:08:31.906Z,70964.38
2023-01-03T05:10:58.380Z,70964.38
2023-01-03T05:13:25.111Z,70964.38
2023-01-03T05:15:51.599Z,70964.38
2023-01-03T05:18:18.297Z,70964.38
2023-01-03T05:21:03.913Z,70964.38
2023-01-03T05:23:48.880Z,70964.38
2023-01-03T05:26:19.898Z,70964.38
2023-01-03T05:28:51.225Z,70964.38
2023-01-03T05:31:17.793Z,70964.38
2023-01-03T05:33:44.469Z,70964.38
2023-01-03T05:36:11.128Z,70964.38
2023-01-03T05:38:38.039Z,70964.38
2023-01-03T05:41:05.162Z,70964.38
2023-01-03T05:43:31.643Z,70964.38
2023-01-03T05:45:58.254Z,70964.38
2023-01-03T05:48:24.810Z,70964.38
2023-01-03T05:50:52.184Z,70964.38
2023-01-03T05:53:18.632Z,70964.38
2023-01-03T05:55:45.208Z,70964.38
2023-01-03T05:58:12.665Z,70964.38
2023-01-03T06:00:39.712Z,70964.38
2023-01-03T06:03:06.331Z,70964.38
2023-01-03T06:05:33.247Z,70964.38
2023-01-03T06:08:01.678Z,70964.38
2023-01-03T06:10:28.402Z,70964.38
2023-01-03T06:12:55.002Z,70964.38
2023-01-03T06:15:21.540Z,70964.38
2023-01-03T06:18:02.321Z,70964.38
2023-01-03T06:20:29.989Z,70964.38
2023-01-03T06:22:56.941Z,70964.38
2023-01-03T06:25:23.563Z,70964.38
2023-01-03T06:27:50.419Z,70964.38
2023-01-03T06:30:16.947Z,70964.38
2023-01-03T06:32:44.321Z,70964.38
2023-01-03T06:35:11.203Z,70964.38
2023-01-03T06:37:37.802Z,70964.38
2023-01-03T06:40:06.363Z,70964.38
2023-01-03T06:42:40.171Z,70964.38
2023-01-03T06:45:25.949Z,70964.38
2023-01-03T06:48:11.378Z,70964.38
2023-01-03T06:51:00.647Z,70964.38
2023-01-03T06:53:31.242Z,70964.38
2023-01-03T06:55:59.267Z,70964.38
2023-01-03T06:58:26.893Z,70964.38
2023-01-03T07:00:53.956Z,70964.38
2023-01-03T07:03:20.940Z,70964.38
2023-01-03T07:05:47.723Z,70964.38
2023-01-03T07:08:14.380Z,70964.38
2023-01-03T07:10:40.825Z,70964.38
2023-01-03T07:13:26.066Z,70964.38
2023-01-03T07:15:52.642Z,70964.38
2023-01-03T07:18:19.204Z,70964.38
2023-01-03T07:20:47.759Z,70964.38
2023-01-03T07:23:14.293Z,70964.38
2023-01-03T07:25:41.800Z,70964.38
2023-01-03T07:28:11.086Z,70964.38
2023-01-03T07:30:39.625Z,70964.38
2023-01-03T08:10:43.629Z,100270.19
2023-01-03T08:13:19.111Z,100291.56
2023-01-03T08:15:48.880Z,100250.97
2023-01-03T08:18:17.069Z,100264.84
2023-01-03T08:20:43.581Z,100275.38
2023-01-03T08:23:10.324Z,100265.22
2023-01-03T08:25:36.854Z,100277.03
2023-01-03T08:28:04.435Z,100291.09
2023-01-03T08:30:31.263Z,100274.94
2023-01-03T08:33:01.048Z,100283.66
2023-01-03T08:35:30.759Z,100281.13
2023-01-03T08:37:58.883Z,100288.56
2023-01-03T08:40:25.725Z,100283.16
2023-01-03T08:42:52.305Z,100288.53
2023-01-03T08:45:20.037Z,100283.41
2023-01-03T08:47:47.021Z,100286.22
2023-01-03T08:50:14.179Z,100296.44
2023-01-03T08:52:40.678Z,100283.66
2023-01-03T08:55:08.289Z,100294.44
2023-01-03T08:57:34.859Z,100302.06
2023-01-03T09:00:01.997Z,100278.13
2023-01-03T09:02:28.857Z,100295.25
2023-01-03T09:04:55.660Z,100300.59
2023-01-03T09:07:22.206Z,100303.69
2023-01-03T09:09:48.820Z,100308.84
2023-01-03T09:12:15.289Z,100308.31
2023-01-03T09:14:41.764Z,100300.34
2023-01-03T09:17:08.263Z,100315.50
2023-01-03T09:19:34.655Z,100312.41
2023-01-03T09:22:01.162Z,100309.56
2023-01-03T09:24:27.595Z,100318.81
2023-01-03T09:26:54.932Z,100322.66
2023-01-03T09:29:22.165Z,100316.50
2023-01-03T09:31:48.717Z,100285.66
2023-01-03T09:34:15.129Z,100299.31
2023-01-03T09:36:41.640Z,100314.97
2023-01-03T09:39:08.157Z,100284.66
2023-01-03T09:41:34.890Z,100318.06
2023-01-03T09:44:04.053Z,100323.69
2023-01-03T09:46:32.513Z,100320.09
2023-01-03T09:48:59.512Z,100314.97
2023-01-03T09:51:47.089Z,100322.69
2023-01-03T09:54:36.907Z,100332.44
2023-01-03T09:57:28.436Z,100321.16
2023-01-03T10:00:13.937Z,100325.25
2023-01-03T10:03:11.174Z,100315.50
2023-01-03T10:06:15.533Z,100320.09
2023-01-03T10:08:44.788Z,100312.94
2023-01-03T10:11:22.684Z,100327.31
2023-01-03T10:14:06.257Z,100315.25
2023-01-03T10:16:53.957Z,100244.28
2023-01-03T10:19:59.716Z,100322.16
2023-01-03T10:22:28.456Z,100323.97
2023-01-03T10:25:17.629Z,100304.72
2023-01-03T10:28:01.535Z,100319.13
2023-01-03T10:31:12.927Z,100312.94
2023-01-03T10:33:47.766Z,100312.41
2023-01-03T10:36:19.601Z,100276.97
2023-01-03T10:38:52.631Z,100294.25
2023-01-03T10:41:40.470Z,100292.50
2023-01-03T10:44:07.093Z,100286.63
2023-01-03T10:46:33.773Z,100274.22
2023-01-03T10:49:30.008Z,100291.25
2023-01-03T10:52:03.462Z,100283.53
2023-01-03T10:54:36.396Z,100291.22
2023-01-03T10:57:05.421Z,100290.97
2023-01-03T10:59:32.363Z,100290.47
2023-01-03T11:02:07.978Z,100287.41
2023-01-03T11:04:35.890Z,100294.34
2023-01-03T11:07:08.499Z,100295.66
2023-01-03T11:09:45.667Z,100296.16
2023-01-03T11:12:50.854Z,100290.50
2023-01-03T11:15:38.380Z,100280.25
2023-01-03T11:18:19.058Z,100277.69
2023-01-03T11:21:13.299Z,100266.63
2023-01-03T11:24:08.401Z,100270.47
2023-01-03T11:26:47.946Z,100274.34
2023-01-03T11:29:26.461Z,100268.19
2023-01-03T11:32:05.028Z,100266.91
2023-01-03T11:35:20.925Z,100271.00
2023-01-03T11:38:08.292Z,100265.88
2023-01-03T11:40:51.608Z,100268.97
2023-01-03T11:44:07.593Z,100263.56
2023-01-03T11:46:55.477Z,100267.41
2023-01-03T11:49:43.138Z,100266.88
2023-01-03T11:52:29.831Z,100262.28
2023-01-03T11:55:17.526Z,100260.72
2023-01-03T11:57:52.673Z,100278.97
2023-01-03T12:00:24.800Z,100267.41
2023-01-03T12:03:01.456Z,100279.22
2023-01-03T12:05:40.068Z,100254.28
2023-01-03T12:08:12.536Z,100258.94
2023-01-03T12:10:56.599Z,100246.84
2023-01-03T12:13:44.649Z,100243.50
2023-01-03T12:16:16.441Z,100253.75
2023-01-03T12:18:55.010Z,100252.72
2023-01-03T12:21:35.833Z,100257.59
2023-01-03T12:24:14.010Z,100255.53
2023-01-03T12:26:43.050Z,100245.75
2023-01-03T12:29:21.100Z,100236.22
2023-01-03T12:31:51.697Z,100231.91
2023-01-03T12:34:41.519Z,100243.97
2023-01-03T12:37:20.677Z,100250.91
2023-01-03T12:40:10.113Z,100248.25
2023-01-03T12:42:36.687Z,100250.09
2023-01-03T12:45:11.864Z,100250.88
2023-01-03T12:47:42.693Z,100249.56
2023-01-03T12:50:22.685Z,100248.31
2023-01-03T12:53:41.852Z,100253.69
2023-01-03T12:56:40.123Z,100241.66
2023-01-03T12:59:39.103Z,100232.91
2023-01-03T13:02:44.074Z,100240.06
2023-01-03T13:05:15.194Z,100247.25
2023-01-03T13:33:25.162Z,148347.44
2023-01-03T13:41:53.830Z,100199.72
2023-01-03T13:44:23.284Z,100218.69
2023-01-03T13:46:51.084Z,100226.72
2023-01-03T13:49:23.651Z,100235.56
2023-01-03T13:51:55.022Z,100228.81
2023-01-03T13:54:24.484Z,100221.44
2023-01-03T13:56:52.656Z,100229.59
2023-01-03T13:59:42.630Z,100233.59
2023-01-03T14:02:12.480Z,100223.34
2023-01-03T14:05:08.176Z,100223.28
2023-01-03T14:07:56.662Z,100215.28
2023-01-03T14:10:32.790Z,100231.28
2023-01-03T14:13:04.919Z,100228.09
2023-01-03T14:15:33.224Z,100238.09
2023-01-03T14:18:24.527Z,100225.84
2023-01-03T14:20:52.945Z,100222.53
2023-01-03T14:26:17.441Z,100232.72
2023-01-03T14:28:49.405Z,100233.81
2023-01-03T14:31:22.186Z,100233.72
2023-01-03T14:33:53.673Z,100244.91
2023-01-03T14:36:20.279Z,100248.22
2023-01-03T14:38:49.232Z,100243.31
2023-01-03T14:41:34.913Z,100247.25
2023-01-03T14:44:15.846Z,100257.69
2023-01-03T14:46:53.786Z,100257.00
2023-01-03T14:49:25.115Z,100254.78
2023-01-03T14:51:58.475Z,100259.75
2023-01-03T14:54:26.199Z,100257.50
2023-01-03T14:56:54.963Z,100233.44
2023-01-03T14:59:22.496Z,100255.78
2023-01-03T15:01:49.241Z,100249.19
2023-01-03T15:04:17.170Z,100256.50
2023-01-03T15:07:11.368Z,100249.56
2023-01-03T15:09:40.127Z,100253.63
2023-01-03T15:12:06.807Z,100258.56
2023-01-03T15:14:35.586Z,100255.88
2023-01-03T15:17:11.436Z,100255.59
2023-01-03T15:19:40.379Z,100262.09
2023-01-03T15:22:11.453Z,100265.75
2023-01-03T15:24:43.189Z,100260.53
2023-01-03T15:27:37.944Z,100273.97
2023-01-03T15:30:20.875Z,100271.72
2023-01-03T15:32:57.527Z,100275.75
2023-01-03T15:35:32.337Z,100274.78
2023-01-03T15:38:00.526Z,100277.19
2023-01-03T15:40:30.075Z,100291.13
2023-01-03T15:43:16.172Z,100289.66
2023-01-03T15:45:42.829Z,100278.19
2023-01-03T15:48:14.629Z,100292.25
2023-01-03T15:50:47.520Z,100298.28
2023-01-03T15:53:44.231Z,100291.31
2023-01-03T15:57:03.291Z,100299.63
2023-01-03T15:59:35.626Z,100298.94
2023-01-03T16:02:20.796Z,100291.13
2023-01-03T16:04:49.223Z,100273.59
2023-01-03T16:07:15.753Z,100260.25
2023-01-03T16:09:42.304Z,100282.59
2023-01-03T16:12:17.839Z,100302.03
2023-01-03T16:14:46.813Z,100316.09
2023-01-03T16:17:20.974Z,100312.91
2023-01-03T16:19:51.120Z,100321.94
2023-01-03T16:22:35.345Z,100322.63
2023-01-03T16:25:04.104Z,100321.00
2023-01-03T16:27:30.552Z,100324.47
2023-01-03T16:29:57.051Z,100306.81
2023-01-03T16:32:28.970Z,100319.59
2023-01-03T16:34:59.786Z,100327.81
2023-01-03T16:37:27.451Z,100294.72
2023-01-03T16:39:54.164Z,100286.78
2023-01-03T16:42:27.278Z,100321.69
2023-01-03T16:44:54.620Z,100327.56
2023-01-03T16:47:39.481Z,100323.63
2023-01-03T16:50:18.590Z,100313.91
2023-01-03T16:52:54.036Z,100326.56
2023-01-03T16:55:23.219Z,100323.78
2023-01-03T16:57:54.160Z,100320.59
2023-01-03T17:00:23.718Z,100322.25
2023-01-03T17:02:50.406Z,100294.75
2023-01-03T17:05:17.495Z,100308.09
2023-01-03T17:07:45.860Z,100310.81
2023-01-03T17:10:34.304Z,100326.13
2023-01-03T17:13:06.858Z,100325.38
2023-01-03T17:15:36.923Z,100325.00
2023-01-03T17:18:03.479Z,100323.09
2023-01-03T17:20:30.755Z,100304.22
2023-01-03T17:22:59.686Z,100308.69
2023-01-03T17:25:26.510Z,100310.94
2023-01-03T17:27:55.624Z,100301.88
2023-01-03T17:30:24.805Z,100301.16
2023-01-03T17:32:51.709Z,100306.34
2023-01-03T17:35:18.490Z,100294.16
2023-01-03T17:38:23.404Z,100287.22
2023-01-03T17:40:34.275Z,100305.31
2023-01-03T17:43:02.117Z,100283.78
2023-01-03T17:45:47.548Z,100305.66
2023-01-03T17:48:32.752Z,100298.28
2023-01-03T17:50:59.402Z,100302.59
2023-01-03T17:53:26.239Z,100280.75
2023-01-03T17:55:53.020Z,100269.66
2023-01-03T17:58:31.257Z,100300.94
2023-01-03T18:00:57.787Z,100299.69
2023-01-03T18:03:24.451Z,100291.09
2023-01-03T18:05:51.088Z,100298.81
2023-01-03T18:08:19.999Z,100301.97
2023-01-03T18:10:47.611Z,100305.16
2023-01-03T18:13:28.970Z,100264.50
2023-01-03T18:15:55.917Z,100295.34
2023-01-03T18:18:24.718Z,100288.69
2023-01-03T18:20:52.616Z,100287.63
2023-01-03T18:23:36.667Z,100299.03
2023-01-03T18:26:06.453Z,100293.50
2023-01-03T18:28:33.397Z,100297.13
2023-01-03T18:30:59.903Z,100260.81
2023-01-03T18:33:26.454Z,100294.09
2023-01-03T18:35:53.173Z,100293.03
2023-01-03T18:38:22.241Z,100293.47
2023-01-03T18:40:48.631Z,100295.19
2023-01-03T18:43:15.471Z,100290.91
2023-01-03T18:45:42.233Z,100288.63
2023-01-03T18:48:14.115Z,100293.03
2023-01-03T18:50:40.628Z,100284.81
2023-01-03T18:53:07.412Z,100284.09
2023-01-03T18:55:35.546Z,100294.47
2023-01-03T18:58:08.911Z,100295.31
2023-01-03T19:00:35.420Z,100293.38
2023-01-03T19:03:02.403Z,100279.47
2023-01-03T19:05:28.994Z,100292.38
2023-01-03T19:07:55.805Z,100282.72
2023-01-03T19:10:25.137Z,100299.69
2023-01-03T19:12:56.062Z,100252.75
2023-01-03T19:15:29.090Z,100291.09
2023-01-03T19:17:58.622Z,100293.84
2023-01-03T19:20:27.164Z,100291.88
2023-01-03T19:22:54.606Z,100290.66
2023-01-03T19:25:27.164Z,100279.31
2023-01-03T19:27:56.806Z,100295.75
2023-01-03T19:30:39.815Z,100294.63
2023-01-03T19:33:12.170Z,100266.16
2023-01-03T19:35:38.713Z,100292.72
2023-01-03T19:38:05.265Z,100261.13
2023-01-03T19:40:33.669Z,100288.75
2023-01-03T19:43:00.404Z,100288.75
2023-01-03T19:45:41.359Z,100287.63
2023-01-03T19:48:22.832Z,100260.63
2023-01-03T19:50:50.483Z,100292.00
2023-01-03T19:53:17.043Z,100287.25
2023-01-03T19:55:45.949Z,100286.47
2023-01-03T19:58:31.210Z,100287.31
2023-01-03T20:00:58.993Z,100276.69
2023-01-03T20:03:26.903Z,100282.09
2023-01-03T20:05:54.157Z,100275.41
2023-01-03T20:08:20.711Z,100277.81
2023-01-03T20:10:47.247Z,100262.56
2023-01-03T20:13:19.714Z,100279.72
2023-01-03T20:15:47.794Z,100273.06
2023-01-03T20:18:36.141Z,100265.31
2023-01-03T20:21:25.491Z,100268.66
2023-01-03T20:23:54.924Z,100262.91
2023-01-03T20:26:22.995Z,100265.13
2023-01-03T20:28:50.269Z,100238.09
2023-01-03T20:31:20.629Z,100248.91
2023-01-03T20:33:47.849Z,100257.59
2023-01-03T20:36:23.348Z,100253.28
2023-01-03T20:38:52.376Z,100253.34
2023-01-03T20:41:19.375Z,100222.13
2023-01-03T20:43:47.524Z,100229.22
2023-01-03T20:46:19.967Z,100243.63
2023-01-03T20:48:53.063Z,100236.97
2023-01-03T20:51:19.879Z,100243.31
2023-01-03T20:53:52.306Z,100203.47
2023-01-03T20:56:20.953Z,100223.38
2023-01-03T20:58:47.655Z,100232.00
2023-01-03T21:01:14.319Z,100188.66
2023-01-03T21:03:40.978Z,100225.47
2023-01-03T21:06:19.525Z,100222.81
2023-01-03T21:08:55.095Z,100217.75
2023-01-03T21:11:24.666Z,100221.44
2023-01-03T21:13:51.285Z,100223.53
2023-01-03T21:16:31.098Z,100221.22
2023-01-03T21:19:03.112Z,100220.88
2023-01-03T21:21:31.260Z,100203.16
2023-01-03T21:23:58.259Z,100204.78
2023-01-03T21:26:25.992Z,100200.50
2023-01-03T21:28:52.733Z,100200.19
2023-01-03T21:31:22.013Z,100205.00
2023-01-03T21:33:48.633Z,100203.53
2023-01-03T21:36:23.156Z,100187.09
2023-01-03T21:38:50.296Z,100192.97
2023-01-03T21:41:22.373Z,100205.03
2023-01-03T21:43:49.199Z,100184.00
2023-01-03T21:46:17.920Z,100199.56
2023-01-03T21:48:45.746Z,100193.22
2023-01-03T21:51:13.411Z,100205.78
2023-01-03T21:53:40.663Z,100185.72
2023-01-03T21:56:21.629Z,100190.78
2023-01-03T21:58:48.439Z,100191.59
2023-01-03T22:01:22.710Z,100187.31
2023-01-03T22:04:09.403Z,100188.56
2023-01-03T22:06:36.743Z,100195.72
2023-01-03T22:09:04.468Z,100194.16
2023-01-03T22:11:31.496Z,100187.56
2023-01-03T22:13:59.692Z,100203.66
2023-01-03T22:16:26.730Z,100193.88
2023-01-03T22:18:53.240Z,100196.72
2023-01-03T22:21:20.477Z,100187.28
2023-01-03T22:23:46.998Z,100183.78
2023-01-03T22:26:15.097Z,100190.03
2023-01-03T22:28:43.718Z,100179.47
2023-01-03T22:31:12.725Z,100178.44
2023-01-03T22:33:39.842Z,100184.63
2023-01-03T22:36:08.165Z,100177.59
2023-01-03T22:38:35.538Z,100181.22
2023-01-03T22:41:02.867Z,100175.38
2023-01-03T22:43:29.427Z,100178.59
2023-01-03T22:45:55.847Z,100168.16
2023-01-03T22:48:22.393Z,100174.88
2023-01-03T22:50:49.869Z,100146.44
2023-01-03T22:53:16.427Z,100175.84
2023-01-03T22:55:43.948Z,100175.56
2023-01-03T22:58:10.874Z,100175.97
2023-01-03T23:00:37.349Z,100175.56
2023-01-03T23:03:03.893Z,100173.16
2023-01-03T23:05:30.351Z,100129.72
2023-01-03T23:07:56.787Z,100157.78
2023-01-03T23:10:23.357Z,100164.44
2023-01-03T23:12:58.654Z,100172.72
2023-01-03T23:15:26.454Z,100144.34
2023-01-03T23:17:58.872Z,100155.78
2023-01-03T23:20:34.961Z,100153.75
2023-01-03T23:23:04.462Z,100144.59
2023-01-03T23:25:32.508Z,100136.72
2023-01-03T23:27:59.198Z,100130.50
2023-01-03T23:30:25.809Z,100121.06
2023-01-03T23:32:52.398Z,100110.50
2023-01-03T23:35:18.911Z,100112.88
2023-01-03T23:37:47.514Z,100087.97
2023-01-03T23:40:14.294Z,100114.56
2023-01-03T23:42:40.871Z,100102.94
2023-01-03T23:45:07.572Z,100118.25
2023-01-03T23:47:35.047Z,100094.63
2023-01-03T23:50:01.473Z,100105.66
2023-01-03T23:52:27.973Z,100105.25
2023-01-03T23:55:00.030Z,100098.84
2023-01-03T23:57:28.067Z,100088.16
2023-01-03T23:59:54.619Z,100090.03
